Rallye Mare e Machja 2017
Le 10,11, 12 Novembre
1 1 LEANDRI Jean-Mathieu/GORGUILO Anthony Skoda Fabia R 5 9:49,9
2 2 GORDON Jean Pierre/GORDON Fabrice Ford Fiesta R 5 10:25,0 +00:35,1 +00:35,1
3 7 LEFEBVRE Frédéric/DINI Gilbert Mitsubishi Evo 9 FA 8 10:27,9 +00:38,0 +00:02,9
4 4 PISANO Mickaël/BERTHOLLE Olivier Ford Fiesta R 5 10:30,7 +00:40,8 +00:02,8
5 52 RENUCCI Pierre-Paul/MAESTRONI Céline Renault Clio Rs Ragnotti N 3 10:38,9 +00:49,0 +00:08,2
6 8 GALEANI Jean-Joseph/LEONARDI Pierre-Marien Mitsubishi Evo 9 R 4 10:47,2 +00:57,3 +00:08,3
7 49 MUSELLI Jean-Philippe/MASSON Elodie Renault Clio FN 3 10:47,3 +00:57,4 +00:00,1
8 43 SERRA Dominique/BURESI Francois-Xavier Peugeot 208 Vti R 2 10:47,4 +00:57,5 +00:00,1
9 12 LANGIANI Patrick/D'ULIVO Jean-Francois Renault F2 14 10:48,4 +00:58,5 +00:01,0
10 40 ALERINI Paul/BARICHELLA Tony Peugeot 208 Vti R 2 10:49,4 +00:59,5 +00:01,0
11 50 CHASSAING Philippe/BACCHIOLELLI Jean-Baptiste Renault Clio Ragnotti FN 3 10:55,9 +01:06,0 +00:06,5
12 29 GIORGI Fabrice/BEILL Raphaël Peugeot 106 Maxi FA 6K 11:00,0 +01:10,1 +00:04,1
13 31 FEDERICCI Jean-Christophe/BUFFA Xavier Citroën Saxo FA 6K 11:00,6 +01:10,7 +00:00,6
14 26 ANDREUCCI Frédéric/LECA Nicolas Renault Clio 16V FA 6K 11:03,2 +01:13,3 +00:02,6
15 28 VANNUCCI Louis/DE BARTOLO Fabrice Citroën Saxo S1600 FA 6K 11:04,0 +01:14,1 +00:00,8
16 5 RENUCCI Kathia/PAOLINI Angélique Peugeot 207 S2000 A 7S 11:05,3 +01:15,4 +00:01,3
17 41 FIORI Jean-Antoine/TAVERA Julien Citroën C2 R2 R 2 11:05,6 +01:15,7 +00:00,3
18 51 DE LA FOATA Paul/TERRONI Cédric Renault Clio Ragnotti N 3 11:12,0 +01:22,1 +00:06,4
19 53 D'AMORE Jean-Philippe/CRISTOFARI Paul-Antoine Renault Clio Rs Ragnotti FN 3 11:12,7 +01:22,8 +00:00,7
20 57 RASIGNI Romain/JOVER Denis Renault Clio Ragnotti N 3 11:14,9 +01:25,0 +00:02,2
21 58 RENUCCI Antoine/SIMEONI Jean-Marc Renault Clio Ragnotti FN 3 11:17,5 +01:27,6 +00:02,6
22 14 GAMBARELLI Anghjulu/CASANOVA Miguel Renault Clio F2 14 11:17,7 +01:27,8 +00:00,2
23 46 BURESI Adrien/BURESI Romain Peugeot 208 R2 R 2 11:19,7 +01:29,8 +00:02,0
24 63 APPIETTO Richard/ALTANA Patrick Peugeot 106 FA 6 11:20,1 +01:30,2 +00:00,4
25 47 GIANNINI Eric/GIANNINI Anthony Peugeot 208 R2 R 2 11:21,6 +01:31,7 +00:01,5
26 10 ROSSI Yannick/VOLPEI Baptiste Mitsubishi Lancer Evo 9 FN 4 11:21,7 +01:31,8 +00:00,1
27 34 MARIANI Anthony/HELM Vivien Peugeot 206 Xs FA 6K 11:23,9 +01:34,0 +00:02,2
28 59 MARCHETTI Michel/MAUREL Virginie Citroën Saxo Vts F2 13 11:24,6 +01:34,7 +00:00,7
29 65 LORENZONI Philippe/CATELLAGGI Julie Honda Civic Eg6 FN 2 11:31,1 +01:41,2 +00:06,5
30 54 DE MEYER Jean-Michel/FRATTI Eric Renault Clio Ragnotti N 3 11:32,5 +01:42,6 +00:01,4
31 3 MARTINI Jean-Philippe/FIESCHI Ambroise Peugeot 208 T16 R 5 11:35,7 +01:45,8 +00:03,2
32 42 GERONIMI Dominique/GARCIA Dann Citroën C2 Vts R 2 11:35,7 +01:45,8
33 44 ANTONA Julien/MANZAGGI Nicolas Citroën C2 R2 Max R 2 11:35,9 +01:46,0 +00:00,2
34 64 VENTURI Christian/PIERAZZI Arnaud Peugeot 205 Rallye FA 5 11:39,4 +01:49,5 +00:03,5
35 45 BUCCI Pierre-Laurent/CAVIGLIOLI Caroline Citroën C2 R2 Max R 2 11:46,2 +01:56,3 +00:06,8
36 33 MARCHINI Jean Paul/SIMONETTI Johanna Peugeot 206 Xs A 6K 11:50,3 +02:00,4 +00:04,1
37 74 PINELLI Jean-Pierre/CANEGGIANI Dylan Peugeot 205 Rallye F2 12 11:55,9 +02:06,0 +00:05,6
38 32 BROQUET John/STEFANAGGI Antoine Peugeot 106 S16 A 6K 11:56,8 +02:06,9 +00:00,9
39 39 VITTORI Marc-Antoine/PORCU Pascal-Andre Citroën C2 A 6K 12:00,6 +02:10,7 +00:03,8
40 68 NIVAGGIONI Jean-Toussaint/PONSOT Sébastien Citroën Saxo Vts FN 2 12:07,7 +02:17,8 +00:07,1
41 61 RENUCCI Antoine/RENUCCI Anthony Peugeot 205 Rallye F2 13 12:10,7 +02:20,8 +00:03,0
42 22 RENUCCI Jacques-Andre/RENUCCI Daniel Peugeot 205 Gti F2 14 12:10,8 +02:20,9 +00:00,1
43 6 GIOVANNANGELI Jean Baptiste/SANTARELLI Coralie BMW M3 FA 8 12:11,0 +02:21,1 +00:00,2
44 37 CASALTA Cyril/FERRACCI Nicolas Peugeot 206 FA 6K 12:11,1 +02:21,2 +00:00,1
45 9 CHIARONI Pascal/BRUNELLI Anne-Laure Renault Clio Sport Max R 3 12:11,5 +02:21,6 +00:00,4
46 17 CALISTRI Jean-Claude/CALISTRI Nicolas Renault 5 Gt Turbo F2 14 12:11,9 +02:22,0 +00:00,4
47 23 ROBERT Alexandre/MILIANI Pascal Peugeot 205 F2 14 12:13,3 +02:23,4 +00:01,4
48 15 FILMONT Jérôme/VIGNOLI Jean-Francois Peugeot 306 S16 F2 14 12:13,5 +02:23,6 +00:00,2
49 69 VENTURI Cyril/TUNINETTI Christian Peugeot 106 Rallye FN 2 12:15,3 +02:25,4 +00:01,8
50 55 DE PERETTI Olivier/LEANDRI Romain Renault Clio Rs 2L Ragnotti N 3 12:22,3 +02:32,4 +00:07,0
51 66 MAESTRACCI François/CASANOVA Sébastien Peugeot 106 FN 2 12:22,4 +02:32,5 +00:00,1
52 18 CASALTA Julien/CASALTA Celena Peugeot 206 F2 14 12:26,2 +02:36,3 +00:03,8
53 62 SALINI Laura/PERETTI Myriam Citroën Saxo FA 6 12:26,4 +02:36,5 +00:00,2
54 35 MARTINETTI Jean-Laurent/DELCLAUD Christian Peugeot 206 Xs A 6K 12:30,8 +02:40,9 +00:04,4
55 72 PAPON Jean-Noel/AMBROSI Céline Citroën Saxo Vts F2 12 12:36,2 +02:46,3 +00:05,4
56 38 CADDEO Allan/LOUVEL Jade Peugeot 206 Xs FA 6K 12:36,4 +02:46,5 +00:00,2
57 67 CASABIANCA Jacques-Francois/PENNACCHIONI Marcel Peugeot 106 S16 FN 2 12:42,9 +02:53,0 +00:06,5
58 76 NICOLI Gérard/GALTIERI Marie-Flore Citroën Ax Sport FN 1 12:45,8 +02:55,9 +00:02,9
59 24 ROSSINI Stefanu/ALTANA Ludovic Renault Clio F2 14 12:50,6 +03:00,7 +00:04,8
60 25 SALVADORI Paul-Joseph/CARRE Jessica Peugeot 205 GTI F2 14 12:53,9 +03:04,0 +00:03,3
61 48 PAOLI Benjamin/MOSSA Sebastien Peugeot 208 Vti R 2 12:54,3 +03:04,4 +00:00,4
62 36 GERONIMI Dominique-Noel/QUILICI Anthony Peugeot 106 S16 FA 6K 13:18,3 +03:28,4 +00:24,0
63 75 TROMBI Philippe/DELATTRE Judicael Peugeot 106 F2 12 13:22,2 +03:32,3 +00:03,9
64 20 MISERAZZI Fabrice/ROS Patrick Peugeot 205 F2 14 14:08,4 +04:18,5 +00:46,2
Clt Equipage Voiture Gr/Cl Temps Ecart 1er Ecart préc. Catégories
Commentaires: © PatricK Soft  
(Temps forfaitaires=couleur bleue)
Classés:64

Epreuve: Groupe: Catégorie:

 
Retour
Classement après ES1-Gradello - Verghija 1 (12.400 km)